Time;durP1;ratioP1;P1;durP2;ratioP2;P2;SDS_P1;SDS_P2;PMS_P1;PMS_P2;Temp;Humidity;BMP_temperature;BMP_pressure;BME280_temperature;BME280_humidity;BME280_pressure;Samples;Min_cycle;Max_cycle;Signal;HPM_P1;HPM_P2
2021/04/06 00:01:54;;;;;;;14.93;5.10;;;-0.60;99.90;;;;;;4417731;28;653630;-71
2021/04/06 00:04:42;;;;;;;6.70;3.67;;;-0.60;99.90;;;;;;4436101;28;653820;-71
2021/04/06 00:07:29;;;;;;;12.00;2.87;;;-0.60;99.90;;;;;;4414495;28;654591;-71
2021/04/06 00:10:19;;;;;;;8.87;4.40;;;-0.70;99.90;;;;;;4436415;28;653365;-71
2021/04/06 00:13:06;;;;;;;7.40;3.33;;;-0.70;99.90;;;;;;4414819;28;652079;-71
2021/04/06 00:15:53;;;;;;;16.37;4.90;;;-0.70;99.90;;;;;;4418646;28;652173;-70
2021/04/06 00:18:40;;;;;;;10.70;5.23;;;-0.70;99.90;;;;;;4437194;28;654240;-71
2021/04/06 00:21:27;;;;;;;11.52;5.15;;;-0.70;99.90;;;;;;4421030;28;653324;-69
2021/04/06 00:24:14;;;;;;;15.03;5.90;;;-0.70;99.90;;;;;;4439640;28;654023;-70
2021/04/06 00:27:14;;;;;;;12.23;5.37;;;-0.70;99.90;;;;;;4435495;28;653584;-70
2021/04/06 00:30:04;;;;;;;10.03;5.10;;;-0.70;99.90;;;;;;4412179;28;654166;-71
2021/04/06 00:32:54;;;;;;;10.93;5.73;;;-0.70;99.90;;;;;;4411870;28;653597;-71
2021/04/06 00:35:41;;;;;;;11.53;5.63;;;-0.70;99.90;;;;;;4410458;28;654178;-71
2021/04/06 00:38:29;;;;;;;11.97;5.50;;;-0.70;99.90;;;;;;4416744;28;653577;-71
2021/04/06 00:41:16;;;;;;;11.63;5.07;;;-0.70;99.90;;;;;;4439905;28;653743;-71
2021/04/06 00:44:10;;;;;;;14.03;6.17;;;-0.70;99.90;;;;;;4417392;28;653545;-71
2021/04/06 00:46:57;;;;;;;11.02;5.90;;;-0.70;99.90;;;;;;4407981;28;653480;-70
2021/04/06 00:49:44;;;;;;;12.95;6.22;;;-0.70;99.90;;;;;;4439410;28;653200;-71
2021/04/06 00:52:32;;;;;;;13.85;6.70;;;-0.70;99.90;;;;;;4434766;28;653629;-71
2021/04/06 00:55:19;;;;;;;12.03;5.83;;;-0.80;99.90;;;;;;4412556;28;654190;-71
2021/04/06 00:58:11;;;;;;;11.23;6.45;;;-0.70;99.90;;;;;;4434298;28;654483;-70
2021/04/06 01:01:00;;;;;;;12.23;6.47;;;-0.80;99.90;;;;;;4388376;28;655612;-70
2021/04/06 01:03:47;;;;;;;15.80;7.33;;;-0.80;99.90;;;;;;4433604;28;654725;-71
2021/04/06 01:06:34;;;;;;;16.03;7.57;;;-0.70;99.90;;;;;;4414991;28;655060;-70
2021/04/06 01:09:31;;;;;;;19.57;8.23;;;-0.70;99.90;;;;;;4437452;28;654745;-72
2021/04/06 01:12:19;;;;;;;18.50;8.50;;;-0.70;99.90;;;;;;4389506;28;655193;-70
2021/04/06 01:15:07;;;;;;;17.53;8.27;;;-0.70;99.90;;;;;;4433359;28;655472;-71
2021/04/06 01:17:55;;;;;;;22.40;9.57;;;-0.70;99.90;;;;;;4411149;28;656313;-71
2021/04/06 01:20:42;;;;;;;19.50;10.18;;;-0.70;99.90;;;;;;4418182;28;654924;-69
2021/04/06 01:23:30;;;;;;;17.13;7.30;;;-0.70;99.90;;;;;;4435597;28;656175;-71
2021/04/06 01:26:17;;;;;;;21.27;8.53;;;-0.70;99.90;;;;;;4416103;28;654458;-69
2021/04/06 01:29:05;;;;;;;19.35;8.93;;;-0.70;99.90;;;;;;4437777;28;654197;-70
2021/04/06 01:31:52;;;;;;;18.47;9.97;;;-0.70;99.90;;;;;;4409603;28;654297;-69
2021/04/06 01:34:40;;;;;;;17.23;8.03;;;-0.70;99.90;;;;;;4437378;28;654908;-71
2021/04/06 01:37:28;;;;;;;17.58;9.30;;;-0.70;99.90;;;;;;4418380;28;654850;-70
2021/04/06 01:40:17;;;;;;;21.27;11.07;;;-0.80;99.90;;;;;;4433395;28;655750;-71
2021/04/06 01:43:04;;;;;;;22.63;10.27;;;-0.80;99.90;;;;;;4409296;28;656864;-71
2021/04/06 01:45:55;;;;;;;17.80;9.27;;;-0.80;99.90;;;;;;4435451;28;655162;-71
2021/04/06 01:48:42;;;;;;;20.00;10.20;;;-0.70;99.90;;;;;;4391761;28;654636;-70
2021/04/06 01:51:29;;;;;;;18.80;9.27;;;-0.80;99.90;;;;;;4436589;28;655656;-71
2021/04/06 01:54:18;;;;;;;18.17;9.97;;;-0.80;99.90;;;;;;4437694;28;654429;-71
2021/04/06 01:57:10;;;;;;;19.70;10.23;;;-0.80;99.90;;;;;;4410369;28;655150;-71
2021/04/06 01:59:59;;;;;;;10.50;4.97;;;-0.80;99.90;;;;;;4408899;28;655503;-72
2021/04/06 02:02:46;;;;;;;13.43;7.13;;;-0.80;99.90;;;;;;4410191;28;655199;-72
2021/04/06 02:05:33;;;;;;;22.43;10.40;;;-0.80;99.90;;;;;;4414205;28;654476;-72
2021/04/06 02:08:21;;;;;;;22.30;8.97;;;-0.80;99.90;;;;;;4431042;28;656606;-71
2021/04/06 02:11:08;;;;;;;14.93;7.27;;;-0.70;99.90;;;;;;4414155;28;655469;-70
2021/04/06 02:14:06;;;;;;;18.33;8.30;;;-0.70;99.90;;;;;;4435859;28;654388;-71
2021/04/06 02:16:54;;;;;;;17.42;9.32;;;-0.60;99.90;;;;;;4387805;28;655258;-71
2021/04/06 02:19:43;;;;;;;17.10;9.07;;;-0.70;99.90;;;;;;4432777;28;654254;-71
2021/04/06 02:22:30;;;;;;;15.90;9.27;;;-0.70;99.90;;;;;;4409903;28;655585;-71
2021/04/06 02:25:17;;;;;;;22.60;11.40;;;-0.60;99.90;;;;;;4426335;28;655039;-69
2021/04/06 02:28:04;;;;;;;22.10;10.87;;;-0.70;99.90;;;;;;4435195;28;654932;-71
2021/04/06 02:30:54;;;;;;;18.73;9.90;;;-0.70;99.90;;;;;;4431131;28;655645;-71
2021/04/06 02:33:41;;;;;;;16.70;7.82;;;-0.60;99.90;;;;;;4407068;28;655673;-71
2021/04/06 02:36:27;;;;;;;13.83;7.70;;;-0.60;99.90;;;;;;4413891;28;654486;-71
2021/04/06 02:39:15;;;;;;;19.77;8.23;;;-0.70;99.90;;;;;;4436408;28;655317;-71
2021/04/06 02:42:02;;;;;;;16.93;8.47;;;-0.70;99.90;;;;;;4431958;28;654487;-71
2021/04/06 02:44:55;;;;;;;14.77;6.17;;;-0.70;99.90;;;;;;4413724;28;654403;-72
2021/04/06 02:47:45;;;;;;;19.03;7.83;;;-0.70;99.90;;;;;;4392019;28;655225;-69
2021/04/06 02:50:32;;;;;;;18.37;8.57;;;-0.70;99.90;;;;;;4432114;28;654488;-71
2021/04/06 02:53:19;;;;;;;12.63;6.27;;;-0.70;99.90;;;;;;4413015;28;655413;-71
2021/04/06 02:56:07;;;;;;;14.63;7.73;;;-0.80;99.90;;;;;;4431804;28;655964;-71
2021/04/06 02:58:54;;;;;;;17.63;8.13;;;-0.80;99.90;;;;;;4412330;28;656400;-71
2021/04/06 03:01:41;;;;;;;13.73;6.27;;;-0.80;99.90;;;;;;4438351;28;655477;-71
2021/04/06 03:04:29;;;;;;;17.77;8.50;;;-0.80;99.90;;;;;;4415741;28;655181;-71
2021/04/06 03:07:20;;;;;;;16.70;8.90;;;-0.70;99.90;;;;;;4434378;28;655922;-71
2021/04/06 03:10:08;;;;;;;21.00;8.00;;;-0.80;99.90;;;;;;4397303;28;655797;-74
2021/04/06 03:12:55;;;;;;;20.33;7.03;;;-0.80;99.90;;;;;;4438130;28;655806;-71
2021/04/06 03:15:42;;;;;;;18.27;8.90;;;-0.80;99.90;;;;;;4414999;28;655345;-70
2021/04/06 03:18:33;;;;;;;15.30;8.05;;;-0.80;99.90;;;;;;4437739;28;655532;-71
2021/04/06 03:21:21;;;;;;;20.50;8.00;;;-0.90;99.90;;;;;;4411751;28;657026;-71
2021/04/06 03:24:09;;;;;;;12.83;7.13;;;-1.00;99.90;;;;;;4415203;28;655474;-71
2021/04/06 03:26:58;;;;;;;17.37;7.73;;;-1.00;99.90;;;;;;4438030;28;655309;-71
2021/04/06 03:29:45;;;;;;;14.20;6.17;;;-1.00;99.90;;;;;;4408354;28;656899;-71
2021/04/06 03:32:32;;;;;;;15.90;6.93;;;-0.90;99.90;;;;;;4433136;28;656238;-70
2021/04/06 03:35:23;;;;;;;14.97;7.23;;;-0.90;99.90;;;;;;4434016;28;655503;-71
2021/04/06 03:38:11;;;;;;;14.67;7.17;;;-0.90;99.90;;;;;;4411582;28;655982;-72
2021/04/06 03:40:58;;;;;;;12.53;6.33;;;-0.90;99.90;;;;;;4413761;28;655814;-72
2021/04/06 03:43:45;;;;;;;13.77;6.30;;;-1.00;99.90;;;;;;4438599;28;656406;-72
2021/04/06 03:46:32;;;;;;;14.80;6.77;;;-1.00;99.90;;;;;;4423862;28;655748;-69
2021/04/06 03:49:21;;;;;;;17.80;5.73;;;-1.10;99.90;;;;;;4438795;28;655699;-71
2021/04/06 03:52:09;;;;;;;9.63;4.43;;;-1.10;99.90;;;;;;4411211;28;655562;-72
2021/04/06 03:54:57;;;;;;;15.17;5.20;;;-1.10;99.90;;;;;;4434728;28;655078;-72
2021/04/06 03:57:48;;;;;;;13.63;5.50;;;-1.10;99.90;;;;;;4414911;28;655731;-71
2021/04/06 04:00:35;;;;;;;12.13;4.73;;;-1.10;99.90;;;;;;4410638;28;656051;-70
2021/04/06 04:03:22;;;;;;;18.13;4.27;;;-1.10;99.90;;;;;;4429648;28;655487;-69
2021/04/06 04:06:09;;;;;;;14.75;3.85;;;-1.10;99.90;;;;;;4437619;28;655686;-70
2021/04/06 04:08:57;;;;;;;13.63;5.83;;;-1.10;99.90;;;;;;4433327;28;656653;-70
2021/04/06 04:11:45;;;;;;;18.13;5.37;;;-1.10;99.90;;;;;;4414905;28;655565;-71
2021/04/06 04:14:32;;;;;;;18.20;4.83;;;-1.00;99.90;;;;;;4432493;28;655562;-68
2021/04/06 04:17:19;;;;;;;15.40;5.45;;;-1.00;99.90;;;;;;4437626;28;656106;-71
2021/04/06 04:20:10;;;;;;;16.70;5.57;;;-1.00;99.90;;;;;;4432979;28;655709;-71
2021/04/06 04:22:57;;;;;;;17.70;5.28;;;-1.00;99.90;;;;;;4414534;28;655382;-69
2021/04/06 04:25:44;;;;;;;16.40;5.87;;;-1.00;99.90;;;;;;4437493;28;656552;-71
2021/04/06 04:28:32;;;;;;;15.63;5.43;;;-1.00;99.90;;;;;;4432906;28;655313;-70
2021/04/06 04:31:19;;;;;;;13.00;4.93;;;-1.00;99.90;;;;;;4410590;28;655943;-71
2021/04/06 04:34:07;;;;;;;16.17;6.00;;;-1.00;99.90;;;;;;4432744;28;655466;-71
2021/04/06 04:36:54;;;;;;;16.67;5.80;;;-1.00;99.90;;;;;;4414044;28;655651;-71
2021/04/06 04:39:41;;;;;;;9.87;4.90;;;-1.10;99.90;;;;;;4431442;28;655312;-71
2021/04/06 04:42:28;;;;;;;15.23;5.53;;;-1.10;99.90;;;;;;4415749;28;654209;-70
2021/04/06 04:45:17;;;;;;;17.38;6.45;;;-1.00;99.90;;;;;;4436501;28;656297;-72
2021/04/06 04:48:05;;;;;;;12.07;4.37;;;-1.10;99.90;;;;;;4410162;28;656890;-71
2021/04/06 04:50:52;;;;;;;17.65;6.07;;;-1.00;99.90;;;;;;4417405;28;655736;-69
2021/04/06 04:53:40;;;;;;;15.63;6.00;;;-1.00;99.90;;;;;;4433243;28;656186;-71
2021/04/06 04:56:27;;;;;;;16.73;6.37;;;-1.10;99.90;;;;;;4429775;28;655783;-69
2021/04/06 04:59:15;;;;;;;18.83;6.73;;;-1.10;99.90;;;;;;4435290;28;655322;-71
2021/04/06 05:02:03;;;;;;;22.97;6.10;;;-1.00;99.90;;;;;;4426563;28;655622;-69
2021/04/06 05:04:50;;;;;;;17.25;6.65;;;-1.00;99.90;;;;;;4436287;28;657044;-71
2021/04/06 05:07:37;;;;;;;17.83;7.03;;;-1.00;99.90;;;;;;4413897;28;655452;-69
2021/04/06 05:10:24;;;;;;;18.17;7.27;;;-1.00;99.90;;;;;;4437037;28;656032;-71
2021/04/06 05:13:11;;;;;;;28.90;8.63;;;-1.00;99.90;;;;;;4432221;28;655572;-70
2021/04/06 05:15:58;;;;;;;13.90;6.90;;;-1.00;99.90;;;;;;4412961;28;655476;-71
2021/04/06 05:18:46;;;;;;;19.33;7.77;;;-1.00;99.90;;;;;;4436309;28;656061;-70
2021/04/06 05:21:33;;;;;;;21.87;8.30;;;-0.90;99.90;;;;;;4411677;28;655965;-71
2021/04/06 05:24:20;;;;;;;20.50;8.00;;;-0.90;99.90;;;;;;4432998;28;656394;-71
2021/04/06 05:27:07;;;;;;;23.27;8.97;;;-0.90;99.90;;;;;;4414000;28;655937;-70
2021/04/06 05:29:54;;;;;;;21.60;7.97;;;-0.90;99.90;;;;;;4436886;28;655394;-71
2021/04/06 05:32:41;;;;;;;17.10;8.40;;;-0.90;99.90;;;;;;4432135;28;656005;-71
2021/04/06 05:35:29;;;;;;;22.47;9.33;;;-0.90;99.90;;;;;;4409510;28;655739;-70
2021/04/06 05:38:17;;;;;;;22.37;8.80;;;-0.80;99.90;;;;;;4431472;28;655662;-71
2021/04/06 05:41:04;;;;;;;23.30;9.33;;;-0.80;99.90;;;;;;4413404;28;655320;-70
2021/04/06 05:43:57;;;;;;;27.30;10.40;;;-0.70;99.90;;;;;;4432074;28;656007;-71
2021/04/06 05:46:46;;;;;;;30.30;10.47;;;-0.70;99.90;;;;;;4386425;28;657228;-71
2021/04/06 05:49:33;;;;;;;26.85;9.80;;;-0.60;99.90;;;;;;4412039;28;656278;-71
2021/04/06 05:52:21;;;;;;;28.93;9.83;;;-0.50;99.90;;;;;;4435920;28;655764;-71
2021/04/06 05:55:08;;;;;;;21.97;8.30;;;-0.30;99.90;;;;;;4413718;28;655559;-70
2021/04/06 05:57:56;;;;;;;20.67;8.20;;;-0.20;99.90;;;;;;4431945;28;656508;-71
2021/04/06 06:00:43;;;;;;;20.50;7.43;;;-0.10;99.90;;;;;;4412796;28;655749;-70
2021/04/06 06:03:30;;;;;;;22.60;7.47;;;-0.10;99.90;;;;;;4431956;28;657156;-70
2021/04/06 06:06:17;;;;;;;18.93;8.00;;;-0.10;99.90;;;;;;4435592;28;655491;-70
2021/04/06 06:09:08;;;;;;;19.20;7.00;;;-0.20;99.90;;;;;;4435703;28;655855;-71
2021/04/06 06:11:59;;;;;;;28.20;8.07;;;-0.20;99.90;;;;;;4391446;28;657210;-71
2021/04/06 06:14:48;;;;;;;21.50;7.40;;;-0.30;99.90;;;;;;4391610;28;656451;-71
2021/04/06 06:17:35;;;;;;;26.02;8.32;;;-0.30;99.90;;;;;;4391578;28;656694;-71
2021/04/06 06:20:23;;;;;;;26.57;8.30;;;-0.40;99.90;;;;;;4395290;28;655614;-70
2021/04/06 06:23:20;;;;;;;18.97;7.43;;;-0.50;99.90;;;;;;4416682;28;655538;-71
2021/04/06 06:26:15;;;;;;;28.07;8.47;;;-0.50;99.90;;;;;;4375810;28;655457;-68
2021/04/06 06:29:16;;;;;;;28.00;9.20;;;-0.60;99.90;;;;;;4372672;28;655582;-69
2021/04/06 06:32:04;;;;;;;27.10;9.97;;;-0.60;99.90;;;;;;4396112;28;655430;-70
2021/04/06 06:34:51;;;;;;;30.73;10.07;;;-0.50;99.90;;;;;;4417842;28;656285;-70
2021/04/06 06:37:38;;;;;;;22.60;8.53;;;-0.50;99.90;;;;;;4397544;28;656441;-71
2021/04/06 06:40:25;;;;;;;25.80;9.13;;;-0.50;99.90;;;;;;4421995;28;656380;-71
2021/04/06 06:43:14;;;;;;;27.27;9.60;;;-0.50;99.90;;;;;;4402874;28;655811;-69
2021/04/06 06:46:01;;;;;;;24.15;9.48;;;-0.50;99.90;;;;;;4417257;28;656095;-71
2021/04/06 06:48:56;;;;;;;21.50;9.23;;;-0.30;99.90;;;;;;4399113;28;655671;-70
2021/04/06 06:51:43;;;;;;;27.57;7.80;;;-0.30;99.90;;;;;;4398282;28;655645;-70
2021/04/06 06:54:40;;;;;;;27.10;8.50;;;-0.20;99.90;;;;;;4421445;28;656326;-71
2021/04/06 06:57:32;;;;;;;28.83;9.43;;;-0.30;99.90;;;;;;4394070;28;655733;-71
2021/04/06 07:00:21;;;;;;;30.50;8.90;;;-0.20;99.90;;;;;;4394074;28;655417;-71
2021/04/06 07:03:15;;;;;;;27.43;9.70;;;-0.20;99.90;;;;;;4397885;28;655591;-71
2021/04/06 07:06:23;;;;;;;27.40;10.27;;;-0.10;99.90;;;;;;4375603;28;655950;-69
2021/04/06 07:09:22;;;;;;;21.90;8.50;;;-0.10;99.90;;;;;;4393103;28;656896;-70
2021/04/06 07:12:10;;;;;;;23.27;7.37;;;-0.10;99.90;;;;;;4375568;28;657841;-71
2021/04/06 07:14:57;;;;;;;26.27;8.93;;;-0.20;99.90;;;;;;4399641;28;655631;-69
2021/04/06 07:17:45;;;;;;;25.13;8.60;;;-0.40;99.90;;;;;;4417119;28;655369;-71
2021/04/06 07:20:33;;;;;;;18.20;7.20;;;-0.50;99.90;;;;;;4398897;28;655759;-69
2021/04/06 07:23:27;;;;;;;25.77;8.98;;;-0.60;99.90;;;;;;4417903;28;655752;-71
2021/04/06 07:26:15;;;;;;;23.87;8.73;;;-0.60;99.90;;;;;;4398305;28;656095;-71
2021/04/06 07:29:04;;;;;;;31.77;9.77;;;-0.50;99.90;;;;;;4406028;28;655596;-69
2021/04/06 07:31:51;;;;;;;21.60;8.63;;;-0.40;99.90;;;;;;4421007;28;655122;-71
2021/04/06 07:34:40;;;;;;;31.27;10.50;;;-0.20;99.90;;;;;;4398045;28;655689;-71
2021/04/06 07:37:27;;;;;;;23.57;9.67;;;-0.20;99.90;;;;;;4396922;28;656421;-69
2021/04/06 07:40:17;;;;;;;27.17;9.63;;;-0.20;99.90;;;;;;4420248;28;655801;-71
2021/04/06 07:43:05;;;;;;;26.33;10.13;;;-0.10;99.90;;;;;;4397706;28;655219;-71
2021/04/06 07:45:52;;;;;;;24.47;10.20;;;-0.10;99.90;;;;;;4407296;28;656384;-69
2021/04/06 07:48:44;;;;;;;22.90;8.40;;;0.00;99.90;;;;;;4419013;28;657091;-71
2021/04/06 07:51:33;;;;;;;23.63;8.53;;;0.00;99.90;;;;;;4395125;28;654270;-71
2021/04/06 07:54:20;;;;;;;15.70;6.70;;;-0.10;99.90;;;;;;4398607;28;655844;-71
2021/04/06 07:57:07;;;;;;;24.40;8.20;;;-0.30;99.90;;;;;;4397794;28;656140;-68
2021/04/06 07:59:55;;;;;;;26.27;9.40;;;-0.20;99.90;;;;;;4416251;28;655564;-71
2021/04/06 08:02:45;;;;;;;21.87;8.23;;;0.00;99.90;;;;;;4419705;28;655608;-71
2021/04/06 08:05:35;;;;;;;23.50;9.27;;;0.30;99.90;;;;;;4390714;28;654654;-69
2021/04/06 08:08:35;;;;;;;21.98;7.72;;;0.70;99.90;;;;;;4398923;28;654331;-71
2021/04/06 08:11:49;;;;;;;14.67;5.87;;;0.90;99.90;;;;;;4394174;28;654773;-69
2021/04/06 08:14:37;;;;;;;19.30;7.57;;;1.00;99.90;;;;;;4411984;28;654388;-71
2021/04/06 08:17:46;;;;;;;21.63;8.17;;;1.00;99.90;;;;;;4412077;28;655709;-71
2021/04/06 08:20:46;;;;;;;24.53;7.97;;;1.10;99.90;;;;;;4386049;28;655277;-71
2021/04/06 08:23:41;;;;;;;23.05;7.95;;;0.90;99.90;;;;;;4389134;28;654893;-71
2021/04/06 08:26:29;;;;;;;19.17;7.47;;;1.10;99.90;;;;;;4415728;28;654677;-70
2021/04/06 08:29:29;;;;;;;20.33;7.07;;;1.00;99.90;;;;;;4438703;28;654461;-69
2021/04/06 08:32:17;;;;;;;21.83;8.13;;;0.60;99.90;;;;;;4411472;28;654622;-71
2021/04/06 08:35:06;;;;;;;17.75;6.93;;;0.50;99.90;;;;;;4415938;28;655777;-72
2021/04/06 08:37:53;;;;;;;26.67;8.93;;;0.40;99.90;;;;;;4415768;28;655259;-71
2021/04/06 08:40:45;;;;;;;31.63;9.30;;;0.50;99.90;;;;;;4428031;28;655309;-71
2021/04/06 08:43:34;;;;;;;24.37;7.97;;;0.50;99.90;;;;;;4392702;28;654784;-70
2021/04/06 08:46:26;;;;;;;20.60;8.63;;;0.60;99.90;;;;;;4433991;28;654498;-71
2021/04/06 08:49:15;;;;;;;18.97;8.27;;;0.80;99.90;;;;;;4414724;28;654621;-71
2021/04/06 08:52:04;;;;;;;20.30;7.90;;;1.00;99.90;;;;;;4416808;28;654909;-70
2021/04/06 08:54:51;;;;;;;21.67;8.87;;;1.10;99.90;;;;;;4433102;28;654327;-71
2021/04/06 08:57:39;;;;;;;23.03;9.10;;;1.50;99.90;;;;;;4415202;28;655156;-71
2021/04/06 09:00:27;;;;;;;24.77;8.97;;;1.90;99.90;;;;;;4438003;28;654927;-71
2021/04/06 09:03:15;;;;;;;24.93;9.20;;;2.10;99.90;;;;;;4415421;28;654469;-71
2021/04/06 09:06:07;;;;;;;23.17;9.23;;;2.00;99.90;;;;;;4429105;28;654824;-69
2021/04/06 09:08:55;;;;;;;23.30;9.10;;;1.80;99.90;;;;;;4412802;28;654921;-72
2021/04/06 09:11:43;;;;;;;23.87;7.83;;;2.00;99.90;;;;;;4414953;28;654206;-71
2021/04/06 09:14:31;;;;;;;20.77;8.23;;;1.90;99.90;;;;;;4437264;28;655329;-71
2021/04/06 09:17:19;;;;;;;22.43;8.73;;;2.20;99.90;;;;;;4414536;28;654978;-71
2021/04/06 09:20:10;;;;;;;21.07;8.07;;;2.20;99.90;;;;;;4436561;28;654244;-71
2021/04/06 09:22:58;;;;;;;25.83;9.53;;;2.40;99.90;;;;;;4391778;28;654460;-71
2021/04/06 09:25:46;;;;;;;25.67;7.85;;;2.80;99.90;;;;;;4433584;28;655476;-71
2021/04/06 09:28:33;;;;;;;20.35;7.47;;;3.00;99.90;;;;;;4411701;28;654475;-71
2021/04/06 09:31:25;;;;;;;19.43;7.30;;;3.00;99.90;;;;;;4437118;28;655815;-71
2021/04/06 09:34:20;;;;;;;23.87;8.17;;;3.50;99.90;;;;;;4393066;28;655526;-69
2021/04/06 09:37:09;;;;;;;24.07;8.70;;;3.30;99.90;;;;;;4392893;28;654842;-69
2021/04/06 09:40:04;;;;;;;17.97;7.37;;;3.60;99.90;;;;;;4433440;28;655165;-70
2021/04/06 09:42:55;;;;;;;25.90;9.23;;;3.30;99.90;;;;;;4410184;28;654437;-71
2021/04/06 09:45:42;;;;;;;16.57;7.40;;;3.30;99.90;;;;;;4431095;28;654274;-69
2021/04/06 09:48:31;;;;;;;20.65;8.70;;;3.00;99.90;;;;;;4437126;28;654854;-70
2021/04/06 09:51:18;;;;;;;18.50;6.57;;;2.80;99.90;;;;;;4413010;28;654686;-69
2021/04/06 09:54:06;;;;;;;19.93;7.80;;;2.80;99.90;;;;;;4437180;28;655266;-70
2021/04/06 09:56:53;;;;;;;21.47;7.83;;;2.70;99.90;;;;;;4414280;28;654194;-69
2021/04/06 09:59:45;;;;;;;24.73;8.03;;;3.00;99.90;;;;;;4436752;28;655343;-71
2021/04/06 10:02:32;;;;;;;19.70;7.60;;;3.30;99.90;;;;;;4432123;28;654532;-69
2021/04/06 10:05:23;;;;;;;18.52;6.38;;;3.50;99.90;;;;;;4437162;28;654636;-71
2021/04/06 10:08:10;;;;;;;19.53;8.33;;;3.40;99.90;;;;;;4409174;28;655413;-71
2021/04/06 10:10:58;;;;;;;21.43;7.47;;;3.70;99.90;;;;;;4413903;28;654402;-70
2021/04/06 10:13:46;;;;;;;16.17;6.53;;;3.60;99.90;;;;;;4432682;28;654491;-71
2021/04/06 10:16:33;;;;;;;21.43;6.80;;;3.50;99.90;;;;;;4414226;28;654090;-70
2021/04/06 10:19:23;;;;;;;17.33;6.20;;;3.90;99.90;;;;;;4432979;28;654721;-70
2021/04/06 10:22:12;;;;;;;16.60;6.00;;;4.10;99.90;;;;;;4410330;28;655712;-71
2021/04/06 10:25:00;;;;;;;12.67;5.40;;;4.40;99.90;;;;;;4410243;28;654984;-70
2021/04/06 10:27:48;;;;;;;20.73;6.13;;;4.40;99.90;;;;;;4426020;28;654581;-69
2021/04/06 10:30:38;;;;;;;16.30;6.10;;;4.00;99.90;;;;;;4433095;28;655915;-72
2021/04/06 10:33:28;;;;;;;15.53;5.53;;;3.40;99.90;;;;;;4408584;28;655170;-71
2021/04/06 10:36:16;;;;;;;15.43;5.80;;;3.70;99.90;;;;;;4408624;28;655457;-71
2021/04/06 10:39:06;;;;;;;16.10;5.70;;;3.90;99.90;;;;;;4412898;28;655228;-71
2021/04/06 10:41:53;;;;;;;20.60;6.23;;;4.20;99.90;;;;;;4414147;28;654457;-71
2021/04/06 10:44:41;;;;;;;12.67;4.83;;;3.90;99.90;;;;;;4436864;28;655474;-71
2021/04/06 10:47:29;;;;;;;13.27;5.23;;;3.30;99.90;;;;;;4412588;28;654605;-71
2021/04/06 10:50:16;;;;;;;23.20;5.43;;;3.00;99.90;;;;;;4432046;28;655312;-71
2021/04/06 10:53:15;;;;;;;13.17;5.60;;;3.00;99.90;;;;;;4413766;28;654502;-71
2021/04/06 10:56:09;;;;;;;17.97;5.63;;;2.80;99.90;;;;;;4402312;28;654979;-70
2021/04/06 10:59:00;;;;;;;15.97;5.90;;;2.60;99.90;;;;;;4407403;28;655083;-71
2021/04/06 11:01:48;;;;;;;14.87;5.93;;;2.70;99.90;;;;;;4403510;28;654143;-69
2021/04/06 11:04:38;;;;;;;13.27;5.80;;;2.60;99.90;;;;;;4431284;28;655269;-70
2021/04/06 11:07:28;;;;;;;14.23;5.50;;;2.30;99.90;;;;;;4409622;28;655223;-70
2021/04/06 11:10:16;;;;;;;21.33;5.53;;;2.40;99.90;;;;;;4409552;28;654673;-71
2021/04/06 11:13:04;;;;;;;21.20;6.07;;;2.40;99.90;;;;;;4412792;28;654804;-70
2021/04/06 11:15:51;;;;;;;15.63;5.67;;;2.60;99.90;;;;;;4432495;28;653968;-70
2021/04/06 11:18:38;;;;;;;14.27;5.63;;;2.60;99.90;;;;;;4415529;28;654605;-71
2021/04/06 11:21:25;;;;;;;17.27;5.17;;;2.70;99.90;;;;;;4435397;28;655705;-70
2021/04/06 11:24:12;;;;;;;15.60;5.43;;;2.80;99.90;;;;;;4417074;28;654639;-70
2021/04/06 11:27:00;;;;;;;15.57;4.90;;;3.00;99.90;;;;;;4435635;28;654792;-71
2021/04/06 11:29:48;;;;;;;11.20;5.13;;;3.60;99.90;;;;;;4416362;28;654416;-69
2021/04/06 11:32:35;;;;;;;9.73;4.10;;;3.90;99.90;;;;;;4439179;28;655340;-71
2021/04/06 11:35:22;;;;;;;13.07;5.03;;;4.30;99.90;;;;;;4418025;28;654013;-70
2021/04/06 11:38:12;;;;;;;10.13;4.20;;;4.80;99.90;;;;;;4435534;28;655648;-71
2021/04/06 11:40:59;;;;;;;10.33;3.77;;;5.50;99.90;;;;;;4412825;28;655676;-71
2021/04/06 11:43:47;;;;;;;8.93;3.77;;;5.00;99.90;;;;;;4435617;28;654588;-71
2021/04/06 11:46:37;;;;;;;8.95;4.57;;;4.40;99.90;;;;;;4418614;28;654430;-71
2021/04/06 11:49:27;;;;;;;11.80;4.67;;;3.70;99.90;;;;;;4418052;28;655244;-71
2021/04/06 11:52:17;;;;;;;12.57;5.03;;;3.40;99.90;;;;;;4411310;28;654721;-71
2021/04/06 11:55:06;;;;;;;8.00;4.00;;;3.60;99.90;;;;;;4412117;28;655325;-70
2021/04/06 11:57:53;;;;;;;13.07;5.40;;;3.40;99.90;;;;;;4417313;28;653659;-69
2021/04/06 12:00:42;;;;;;;13.70;5.43;;;3.40;99.90;;;;;;4435307;28;655328;-70
2021/04/06 12:03:30;;;;;;;15.40;5.93;;;3.70;99.90;;;;;;4412230;28;655823;-71
2021/04/06 12:06:17;;;;;;;12.38;5.00;;;4.00;99.90;;;;;;4416082;28;654530;-69
2021/04/06 12:09:05;;;;;;;11.50;5.28;;;4.30;99.90;;;;;;4439366;28;654471;-70
2021/04/06 12:11:52;;;;;;;12.20;5.13;;;4.70;99.90;;;;;;4407817;28;654510;-70
2021/04/06 12:14:39;;;;;;;9.88;4.75;;;5.20;99.90;;;;;;4413514;28;655009;-70
2021/04/06 12:17:27;;;;;;;12.90;5.37;;;5.10;99.90;;;;;;4416742;28;653334;-70
2021/04/06 12:20:15;;;;;;;9.03;3.77;;;4.50;99.90;;;;;;4398340;28;654371;-70
2021/04/06 12:23:02;;;;;;;9.68;4.35;;;4.20;99.90;;;;;;4399785;28;653527;-69
2021/04/06 12:25:49;;;;;;;9.03;5.10;;;4.60;99.90;;;;;;4422420;28;652903;-70
2021/04/06 12:28:36;;;;;;;12.10;4.80;;;5.10;99.90;;;;;;4418142;28;654070;-70
2021/04/06 12:31:24;;;;;;;6.93;3.60;;;5.20;99.90;;;;;;4398751;28;654800;-70
2021/04/06 12:34:11;;;;;;;8.30;4.07;;;5.10;99.90;;;;;;4422118;28;653673;-70
2021/04/06 12:36:59;;;;;;;10.40;4.30;;;5.70;99.90;;;;;;4399470;28;653737;-70
2021/04/06 12:39:47;;;;;;;8.17;3.93;;;5.70;99.90;;;;;;4417750;28;654276;-71
2021/04/06 12:42:37;;;;;;;7.07;3.30;;;6.00;99.30;;;;;;4396227;28;654427;-69
2021/04/06 12:45:25;;;;;;;11.47;3.60;;;6.60;95.80;;;;;;4396458;28;653656;-69
2021/04/06 12:48:12;;;;;;;7.83;3.63;;;6.20;97.70;;;;;;4414828;28;654713;-69
2021/04/06 12:51:00;;;;;;;4.70;2.53;;;6.10;93.20;;;;;;4417987;28;653724;-70
2021/04/06 12:53:48;;;;;;;7.97;3.17;;;6.20;91.40;;;;;;4417519;28;653963;-71
2021/04/06 12:56:35;;;;;;;8.93;3.30;;;6.00;85.50;;;;;;4395287;28;654049;-70
2021/04/06 12:59:23;;;;;;;8.13;2.60;;;5.60;83.80;;;;;;4402916;28;653505;-69
2021/04/06 13:02:10;;;;;;;5.43;2.37;;;5.20;81.40;;;;;;4417802;28;655170;-70
2021/04/06 13:04:57;;;;;;;8.15;2.60;;;4.90;83.10;;;;;;4403011;28;653515;-69
2021/04/06 13:07:45;;;;;;;6.83;2.73;;;4.90;84.10;;;;;;4421140;28;654041;-69
2021/04/06 13:10:34;;;;;;;12.43;3.08;;;5.10;83.70;;;;;;4407739;28;653914;-67
2021/04/06 13:13:20;;;;;;;6.43;3.13;;;5.50;89.10;;;;;;4434021;28;655322;-71
2021/04/06 13:16:08;;;;;;;7.07;2.53;;;5.80;85.00;;;;;;4415796;28;653371;-70
2021/04/06 13:18:58;;;;;;;6.43;2.87;;;5.50;79.10;;;;;;4438637;28;654181;-70
2021/04/06 13:21:45;;;;;;;5.17;2.43;;;5.10;85.20;;;;;;4415594;28;654230;-71
2021/04/06 13:24:32;;;;;;;7.17;3.70;;;5.00;83.30;;;;;;4434795;28;653605;-70
2021/04/06 13:27:20;;;;;;;14.13;4.27;;;5.50;89.60;;;;;;4412243;28;654477;-70
2021/04/06 13:30:08;;;;;;;7.87;3.17;;;5.90;83.70;;;;;;4423848;28;654292;-69
2021/04/06 13:32:55;;;;;;;6.40;2.92;;;5.90;88.00;;;;;;4435449;28;654575;-70
2021/04/06 13:35:42;;;;;;;3.60;1.90;;;6.50;81.70;;;;;;4416612;28;653477;-68
2021/04/06 13:38:29;;;;;;;2.83;1.90;;;6.60;75.60;;;;;;4421723;28;653847;-71
2021/04/06 13:41:16;;;;;;;5.90;2.43;;;6.20;74.50;;;;;;4438015;28;654694;-70
2021/04/06 13:44:05;;;;;;;5.20;2.13;;;5.80;72.80;;;;;;4411327;28;653388;-70
2021/04/06 13:46:52;;;;;;;6.00;2.38;;;5.10;73.60;;;;;;4419460;28;653551;-68
2021/04/06 13:49:40;;;;;;;7.40;2.50;;;4.30;73.40;;;;;;4438266;28;653165;-70
2021/04/06 13:52:27;;;;;;;6.03;2.30;;;3.90;75.30;;;;;;4434155;28;654161;-70
2021/04/06 13:55:15;;;;;;;6.80;2.53;;;3.90;76.00;;;;;;4412051;28;654163;-70
2021/04/06 13:58:02;;;;;;;6.83;2.37;;;4.10;77.60;;;;;;4434629;28;653391;-71
2021/04/06 14:00:50;;;;;;;6.80;2.67;;;4.10;79.00;;;;;;4411531;28;654952;-71
2021/04/06 14:03:37;;;;;;;7.30;3.43;;;3.90;78.20;;;;;;4408709;28;653740;-69
2021/04/06 14:06:24;;;;;;;13.55;4.00;;;3.70;80.70;;;;;;4438407;28;653730;-71
2021/04/06 14:09:14;;;;;;;6.82;2.45;;;3.50;81.80;;;;;;4432929;28;654237;-69
2021/04/06 14:12:01;;;;;;;8.53;3.63;;;3.40;80.80;;;;;;4392727;28;653875;-68
2021/04/06 14:14:48;;;;;;;7.47;3.40;;;3.30;83.70;;;;;;4397525;28;653369;-71
2021/04/06 14:17:37;;;;;;;8.57;3.75;;;3.50;80.80;;;;;;4409116;28;654592;-71
2021/04/06 14:20:27;;;;;;;8.97;3.60;;;3.60;84.40;;;;;;4396740;28;653589;-69
2021/04/06 14:23:17;;;;;;;11.97;5.27;;;3.60;83.00;;;;;;4397030;28;653483;-71